»·PEaware :: N827KC KLAX-KSAN

N827KC :: KLAX-KSAN

FLIGHT INFORMATION

Flight Status: Arrived
Operator: Privately registered:
United States
More flights under this callsign
Pilot: Kevin C. (631)
Aircraft: Unknown
(PIPA)
More flights by this aircraft type
Origin: KLAX Los Angeles Intl
United States
Destination: KSAN San Diego Intl-Lindbergh
United States
More flights between these airports :: More routes between these airports
Route: +
File this flight plan on PilotEdge
Remarks:
Altitude:
(Current/Filed)
5,500ft
Speed:
(Current/Filed)
0kts
Departed: 28-Sep-17 08:26 AM
Arrived: 28-Sep-17 09:07 AM
Distance/Time
Traveled:
95nm/0:41
Distance/Time
To Go:
Arrived

Flight Plot

Page will automatically refresh every two minutes.


Map Options




Map Legend


Flown Route
Filed Route
Departure Airport
Arrival Airport
Navaid (VOR, NDB)
Fix

Horizontal Profiles

Position Reports

Time Latitude Longitude Heading Altitude Ground
Speed
28-Sep-17 08:23 33.933675 -118.399059 174 128ft 0kts
28-Sep-17 08:24 33.933675 -118.399059 174 128ft 0kts
28-Sep-17 08:25 33.933675 -118.399059 174 128ft 0kts
28-Sep-17 08:26 33.934525 -118.398073 45 128ft 9kts
28-Sep-17 08:27 33.935057 -118.393342 81 128ft 18kts
28-Sep-17 08:28 33.935687 -118.386824 81 128ft 20kts
28-Sep-17 08:29 33.936431 -118.382760 0 128ft 0kts
28-Sep-17 08:30 33.936777 -118.388547 262 139ft 96kts
28-Sep-17 08:31 33.934220 -118.431503 267 1413ft 131kts
28-Sep-17 08:32 33.917351 -118.459767 172 2884ft 130kts
28-Sep-17 08:33 33.877279 -118.451965 150 3846ft 155kts
28-Sep-17 08:34 33.851962 -118.408386 122 4485ft 176kts
28-Sep-17 08:35 33.823806 -118.355643 121 4482ft 192kts
28-Sep-17 08:36 33.794738 -118.301100 121 4481ft 195kts
28-Sep-17 08:37 33.765615 -118.246461 121 4479ft 195kts
28-Sep-17 08:38 33.737351 -118.193589 121 5010ft 174kts
28-Sep-17 08:39 33.697221 -118.165536 161 5485ft 185kts
28-Sep-17 08:40 33.646974 -118.144551 143 5477ft 194kts
28-Sep-17 08:41 33.618552 -118.090853 119 5472ft 182kts
28-Sep-17 08:42 33.594084 -118.040400 118 5472ft 170kts
28-Sep-17 08:43 33.570960 -117.992114 118 5476ft 166kts
28-Sep-17 08:44 33.548106 -117.944092 118 5478ft 166kts
28-Sep-17 08:45 33.525339 -117.896123 118 5480ft 165kts
28-Sep-17 08:46 33.502559 -117.848072 118 5481ft 166kts
28-Sep-17 08:47 33.479877 -117.800239 118 5482ft 166kts
28-Sep-17 08:48 33.455482 -117.753684 128 5484ft 166kts
28-Sep-17 08:49 33.425693 -117.711419 128 5486ft 166kts
28-Sep-17 08:50 33.395796 -117.669277 128 5488ft 166kts
28-Sep-17 08:51 33.365951 -117.627381 128 5490ft 166kts
28-Sep-17 08:52 33.336055 -117.585536 128 5490ft 165kts
28-Sep-17 08:53 33.306230 -117.543884 128 5498ft 165kts
28-Sep-17 08:54 33.276031 -117.502641 142 5490ft 166kts
28-Sep-17 08:55 33.234125 -117.478767 153 5494ft 167kts
28-Sep-17 08:56 33.191986 -117.455603 153 5491ft 167kts
28-Sep-17 08:57 33.149611 -117.432551 154 5488ft 167kts
28-Sep-17 08:58 33.107283 -117.409675 154 5485ft 167kts
28-Sep-17 08:59 33.064799 -117.386826 154 5484ft 168kts
28-Sep-17 09:00 33.023734 -117.362164 149 5285ft 160kts
28-Sep-17 09:01 32.988792 -117.339368 150 4260ft 134kts
28-Sep-17 09:02 32.958332 -117.319507 150 3471ft 117kts
28-Sep-17 09:03 32.928029 -117.299753 150 3488ft 155kts
28-Sep-17 09:04 32.886482 -117.272832 154 3464ft 164kts
28-Sep-17 09:05 32.850210 -117.253096 153 3474ft 133kts
28-Sep-17 09:06 32.816462 -117.234733 153 3473ft 125kts
28-Sep-17 09:07 32.784890 -117.221784 155 2220ft 116kts
28-Sep-17 09:08 32.756352 -117.205289 138 912ft 118kts
28-Sep-17 09:09 32.746149 -117.171473 101 1264ft 102kts
28-Sep-17 09:10 32.729239 -117.167156 252 533ft 89kts
28-Sep-17 09:11 32.733541 -117.188151 350 20ft 13kts
28-Sep-17 09:12 32.734016 -117.188024 37 20ft 4kts
28-Sep-17 09:13 32.733622 -117.185138 103 20ft 12kts
28-Sep-17 09:14 32.732552 -117.180772 105 20ft 14kts
28-Sep-17 09:15 32.733367 -117.178639 119 20ft 0kts
28-Sep-17 09:16 32.733367 -117.178639 119 20ft 0kts
28-Sep-17 09:17 32.733367 -117.178639 119 20ft 0kts
28-Sep-17 09:18 32.733367 -117.178639 119 20ft 0kts
28-Sep-17 09:19 32.733367 -117.178639 119 20ft 0kts

Navigation Log

Ident Type
1. KLAX Airport
2. KSAN Airport